• Join FlightAware (Why Join?)
  • Login
  • US Flag 
01:46PM EST


 

Airport Tracker/Info


-or-


 

Live Flight TrackerFlight Track Log ✈ UPS104 ✈ 01-Feb-2014 ✈ PANC - RJBB / KIX

Flight Track Log - Related Links

Times and Time Zones

All times are in EST time to prevent confusion due to time zone crossing. See the UPS104 flight status page for this flight to view local times or setup timezone preferences in your user account.

Time Position Orientation Groundspeed Altitude Reporting Facility
EST Latitude Longitude Course Direction KTS MPH feet Rate Location/Type
03:00PM 61.3461 -151.0693 262° West 386 444 16,600  Level FlightAware ADS-B (PANC)
03:01PM 61.3387 -151.1840 262° West 395 455 18,000 2,640 Climbing FlightAware ADS-B (PAEN / ENA)
03:01PM 61.3312 -151.3012 262° West 400 460 19,400 2,460 Climbing FlightAware ADS-B (PAEN / ENA)
03:02PM 61.3212 -151.4507 262° West 409 471 20,800 2,160 Climbing FlightAware ADS-B (PANC)
03:02PM 61.3123 -151.5831 262° West 419 482 22,100 2,160 Climbing FlightAware ADS-B (PAEN / ENA)
03:03PM 61.2998 -151.7667 262° West 427 491 23,700 2,160 Climbing FlightAware ADS-B (PANC)
03:04PM 61.2905 -151.8985 262° West 434 499 24,800 1,920 Climbing FlightAware ADS-B (PAEN / ENA)
03:04PM 61.2839 -152.0876 266° West 443 510 26,200 1,800 Climbing FlightAware ADS-B (PAEN / ENA)
03:05PM 61.2843 -152.2170 270° West 449 517 27,100 2,460 Climbing FlightAware ADS-B (PAEN / ENA)
03:06PM 61.2850 -152.3549 271° West 436 502 28,800 2,580 Climbing FlightAware ADS-B (PANC)
03:06PM 61.2857 -152.5224 271° West 430 495 30,300 1,800 Climbing FlightAware ADS-B (PANC)
03:07PM 61.2861 -152.6918 270° West 434 499 31,300 1,320 Climbing FlightAware ADS-B (PANC)
03:07PM 61.2861 -152.8389 270° West 439 505 32,000 480 Climbing FlightAware ADS-B (PAEN / ENA)
03:08PM 61.2861 -153.0291 270° West 450 518 32,000  Level FlightAware ADS-B (PANC)
03:09PM 61.2859 -153.1647 270° West 452 520 32,000  Level FlightAware ADS-B (PAEN / ENA)
03:09PM 61.2853 -153.3585 270° West 454 522 32,000  Level FlightAware ADS-B (PAEN / ENA)
03:10PM 61.2846 -153.4919 269° West 454 522 32,000  Level FlightAware ADS-B (PAEN / ENA)
03:11PM 61.2839 -153.6386 270° West 454 522 32,000  Level FlightAware ADS-B (PANC)
03:11PM 61.2829 -153.8097 269° West 455 524 32,000  Level FlightAware ADS-B (PANC)
03:12PM 61.2819 -153.9439 269° West 455 524 32,000  Level FlightAware ADS-B (PAEN / ENA)
03:12PM 61.2808 -154.0766 269° West 455 524 32,000  Level FlightAware ADS-B (PAEN / ENA)
03:13PM 61.2793 -154.2413 269° West 454 522 32,000  Level FlightAware ADS-B (PANC)
03:13PM 61.2776 -154.3994 269° West 454 522 32,000  Level FlightAware ADS-B (PAEN / ENA)
03:14PM 61.2751 -154.5957 269° West 454 522 32,000  Level FlightAware ADS-B (PANC)
03:15PM 61.2734 -154.7286 269° West 454 522 32,000  Level FlightAware ADS-B (PAEN / ENA)
03:15PM 61.2705 -154.9245 268° West 455 524 32,000  Level FlightAware ADS-B (PAEN / ENA)
03:16PM 61.2670 -155.1547 268° West 455 524 32,000  Level FlightAware ADS-B (PAEN / ENA)
03:17PM 61.2641 -155.3128 268° West 455 524 32,000  Level FlightAware ADS-B (PAEN / ENA)
03:18PM 61.2604 -155.5087 268° West 455 524 32,000  Level FlightAware ADS-B (PAEN / ENA)
03:18PM 61.2577 -155.6447 268° West 455 524 32,000  Level FlightAware ADS-B (PAEN / ENA)
03:19PM 61.2535 -155.8394 268° West 455 524 32,000  Level FlightAware ADS-B (PAEN / ENA)
03:19PM 61.2511 -155.9651 268° West 455 524 32,000  Level FlightAware ADS-B (PAEN / ENA)
03:20PM 61.2509 -156.1552 270° West 457 526 32,000  Level FlightAware ADS-B (PAEN / ENA)
03:21PM 61.2500 -156.4333 270° West 450 518 32,000  Level Anchorage Center
03:22PM 61.2500 -156.7000 270° West 450 518 32,000  Level Anchorage Center
03:23PM 61.2500 -156.9667 270° West 460 529 32,000  Level Anchorage Center
03:24PM 61.2500 -157.2333 270° West 450 518 32,000  Level Anchorage Center
03:25PM 61.2500 -157.5000 270° West 450 518 32,000  Level Anchorage Center
03:26PM 61.2500 -157.7667 270° West 460 529 32,000  Level Anchorage Center
03:27PM 61.2333 -158.0333 263° West 470 541 32,000  Level Anchorage Center
03:28PM 61.2333 -158.3000 270° West 460 529 32,000  Level Anchorage Center
03:29PM 61.2333 -158.5833 270° West 470 541 32,000  Level Anchorage Center
03:30PM 61.2333 -158.8500 270° West 460 529 32,000  Level Anchorage Center
03:31PM 61.2333 -159.1333 270° West 470 541 32,000  Level Anchorage Center
03:32PM 61.2333 -159.4000 270° West 460 529 32,000  Level Anchorage Center
03:33PM 61.2167 -159.6667 263° West 450 518 32,000  Level Anchorage Center
03:34PM 61.2167 -159.9333 270° West 460 529 32,000  Level Anchorage Center
03:35PM 61.2000 -160.2000 263° West 460 529 32,000  Level Anchorage Center
03:36PM 61.2000 -160.4500 270° West 460 529 32,000  Level Anchorage Center
03:37PM 61.2000 -160.7333 270° West 460 529 32,000  Level Anchorage Center
03:38PM 61.1833 -161.0000 263° West 460 529 32,000  Level Anchorage Center
03:39PM 61.1833 -161.2667 270° West 460 529 32,000  Level Anchorage Center
03:40PM 61.1667 -161.5333 263° West 460 529 32,000  Level Anchorage Center
03:41PM 61.1500 -161.8000 263° West 460 529 32,000  Level Anchorage Center
03:42PM 61.1500 -162.0667 270° West 450 518 32,000  Level Anchorage Center
03:43PM 61.1333 -162.3333 263° West 460 529 32,000  Level Anchorage Center
03:44PM 61.1333 -162.6000 270° West 460 529 32,000  Level Anchorage Center
03:45PM 61.1167 -162.8667 263° West 450 518 32,000  Level Anchorage Center
03:47PM 61.1000 -163.1167 262° West 440 506 32,000  Level Anchorage Center
03:48PM 61.0500 -163.3833 249° West 460 529 32,000  Level Anchorage Center
03:49PM 61.0167 -163.6333 255° West 460 529 32,000  Level Anchorage Center
03:50PM 60.9833 -163.8833 255° West 450 518 32,000  Level Anchorage Center
03:51PM 60.9500 -164.1333 255° West 460 529 32,000  Level Anchorage Center
03:52PM 60.9000 -164.3833 248° West 460 529 32,000  Level Anchorage Center
03:53PM 60.8667 -164.6500 256° West 460 529 32,000  Level Anchorage Center
03:54PM 60.8333 -164.9000 255° West 460 529 32,000  Level Anchorage Center
03:55PM 60.8000 -165.1500 255° West 460 529 32,000  Level Anchorage Center
03:56PM 60.7500 -165.4000 248° West 460 529 32,000  Level Anchorage Center
03:57PM 60.7167 -165.6500 255° West 460 529 32,000  Level Anchorage Center
03:58PM 60.6667 -165.9000 248° West 460 529 32,000  Level Anchorage Center
03:59PM 60.6333 -166.1500 255° West 460 529 32,000  Level Anchorage Center
04:00PM 60.5833 -166.4000 248° West 460 529 32,000  Level Anchorage Center
04:01PM 60.5500 -166.6500 255° West 450 518 32,000  Level Anchorage Center
04:02PM 60.5000 -166.8833 247° West 450 518 32,000  Level Anchorage Center
04:03PM 60.4667 -167.1333 255° West 450 518 32,000  Level Anchorage Center
04:04PM 60.4167 -167.3667 247° West 450 518 32,000  Level Anchorage Center
04:05PM 60.3833 -167.6167 255° West 450 518 32,000  Level Anchorage Center
04:06PM 60.3333 -167.8500 247° West 450 518 32,000  Level Anchorage Center
04:07PM 60.3000 -168.0833 254° West 440 506 32,000  Level Anchorage Center
04:08PM 60.2500 -168.3167 247° West 430 495 32,000  Level Anchorage Center
04:09PM 60.2167 -168.5500 254° West 430 495 32,000  Level Anchorage Center
04:10PM 60.1667 -168.7667 245° Southwest 430 495 32,000  Level Anchorage Center
04:11PM 60.1167 -168.9833 245° Southwest 430 495 32,000  Level Anchorage Center
04:12PM 60.0833 -169.2167 254° West 440 506 32,000  Level Anchorage Center
04:13PM 60.0333 -169.4500 247° West 450 518 32,000  Level Anchorage Center
04:14PM 59.9833 -169.6833 247° West 450 518 32,000  Level Anchorage Center
04:15PM 59.9500 -169.9167 254° West 430 495 32,000  Level Anchorage Center
04:16PM 59.9000 -170.1333 245° Southwest 440 506 32,000  Level Anchorage Center
04:17PM 59.8500 -170.3833 248° West 430 495 32,000  Level Anchorage Center
04:18PM 59.8167 -170.5833 252° West 420 483 32,000  Level Anchorage Center
04:19PM 59.7667 -170.8000 245° Southwest 420 483 32,000  Level Anchorage Center
04:20PM 59.7167 -171.0333 247° West 430 495 32,000  Level Anchorage Center
04:21PM 59.6667 -171.2500 246° West 430 495 32,000  Level Anchorage Center
04:22PM 59.6167 -171.4833 247° West 440 506 32,000  Level Anchorage Center
04:23PM 59.5667 -171.7000 246° West 430 495 32,000  Level Anchorage Center
04:24PM 59.5333 -171.9167 253° West 430 495 32,000  Level Anchorage Center
04:25PM 59.4833 -172.1333 246° West 430 495 32,000  Level Anchorage Center
04:26PM 59.4500 -172.3167 250° West 430 495 32,000  Level Anchorage Center
04:27PM 59.3833 -172.5833 244° Southwest 420 483 32,000  Level Anchorage Center
04:28PM 59.3500 -172.8000 253° West 420 483 32,000  Level Anchorage Center
04:29PM 59.3000 -173.0000 244° Southwest 410 472 32,000  Level Anchorage Center
04:30PM 59.2667 -173.2167 253° West 420 483 32,000  Level Anchorage Center
04:31PM 59.2167 -173.4167 244° Southwest 410 472 32,000  Level Anchorage Center
04:32PM 59.1667 -173.6167 244° Southwest 410 472 32,000  Level Anchorage Center
04:33PM 59.1333 -173.8333 253° West 410 472 32,000  Level Anchorage Center
04:34PM 59.0833 -174.0333 244° Southwest 400 460 32,000  Level Anchorage Center
04:35PM 59.0333 -174.2333 244° Southwest 410 472 32,000  Level Anchorage Center
04:36PM 59.0000 -174.4333 252° West 410 472 32,000  Level Anchorage Center
04:37PM 58.9500 -174.6500 246° West 420 483 32,000  Level Anchorage Center
04:38PM 58.9000 -174.8500 244° Southwest 410 472 32,000  Level Anchorage Center
04:39PM 58.8500 -175.0667 246° West 410 472 32,000  Level Anchorage Center
04:40PM 58.8167 -175.2667 252° West 410 472 32,000  Level Anchorage Center
04:41PM 58.7667 -175.4667 244° Southwest 420 483 32,000  Level Anchorage Center
04:42PM 58.7167 -175.6833 246° West 420 483 32,000  Level Anchorage Center
04:45PM 58.5500 -176.3333 244° Southwest 420 483 32,000  Level Anchorage Center
04:46PM 58.5167 -176.5333 252° West 410 472 32,000  Level Anchorage Center
04:49PM 58.4000 -177.0667 245° Southwest 384 442 32,000  Level Anchorage Center
04:49PM 58.3833 -177.1000 245° Southwest 412 474 32,000  Level Anchorage Center
04:58PM 57.9167 -178.9167 243° Southwest 397 457 32,000  Level Anchorage Center
05:08PM 57.4333 179.3667 242° Southwest 377 434 32,000  Level Anchorage Center
05:17PM 56.9667 177.7500 240° Southwest 377 434 32,000  Level Anchorage Center
05:20PM 56.8333 177.3500 240° Southwest 378 435 32,000  Level Anchorage Center
05:27PM 56.4500 176.1667 239° Southwest 365 420 32,000  Level Anchorage Center
05:37PM 55.9500 174.7000 238° Southwest 360 414 32,000  Level Anchorage Center
05:38PM 55.8667 174.4833 237° Southwest 390 449 32,000  Level Anchorage Center
05:39PM 55.8175 174.3340 237° Southwest 365 420 32,000  Level FlightAware Transoceanic
05:39PM 55.8167 174.3667 233° Southwest 370 426 32,000  Level Anchorage Center
05:40PM 55.7635 174.1840 237° Southwest 365 420 32,000  Level FlightAware Transoceanic
05:40PM 55.7667 174.2000 242° Southwest 370 426 32,000  Level Anchorage Center
05:41PM 55.7094 174.0344 237° Southwest 365 420 32,000  Level FlightAware Transoceanic
05:41PM 55.7167 174.0667 236° Southwest 370 426 32,000  Level Anchorage Center
05:42PM 55.6552 173.8852 237° Southwest 365 420 32,000  Level FlightAware Transoceanic
05:42PM 55.6500 173.9000 235° Southwest 360 414 32,000  Level Anchorage Center
05:43PM 55.6178 173.7789 237° Southwest 360 414 32,000  Level FlightAware Transoceanic
05:43PM 55.5833 173.7333 235° Southwest 360 414 32,000  Level Anchorage Center
05:44PM 55.5500 173.6000 246° West 370 426 32,000  Level Anchorage Center
05:45PM 55.4833 173.4333 235° Southwest 370 426 32,000  Level Anchorage Center
05:46PM 55.4333 173.3167 233° Southwest 360 414 32,000  Level Anchorage Center
05:47PM 55.3667 173.1500 235° Southwest 360 414 32,000  Level Anchorage Center
05:48PM 55.3167 173.0167 237° Southwest 360 414 32,000  Level Anchorage Center
05:49PM 55.2667 172.8500 242° Southwest 380 437 32,000  Level Anchorage Center
05:50PM 55.2167 172.7167 237° Southwest 370 426 32,000  Level Anchorage Center
05:51PM 55.1500 172.5500 235° Southwest 390 449 32,000  Level Anchorage Center
05:52PM 55.0833 172.4000 232° Southwest 370 426 32,000  Level Anchorage Center
05:53PM 55.0333 172.2667 237° Southwest 380 437 32,000  Level Anchorage Center
05:54PM 54.9667 172.1000 235° Southwest 360 414 32,000  Level Anchorage Center
05:55PM 54.9167 171.9667 237° Southwest 380 437 32,000  Level Anchorage Center
05:56PM 54.8500 171.8000 235° Southwest 400 460 32,000  Level Anchorage Center
05:57PM 54.7833 171.6667 229° Southwest 390 449 32,000  Level Anchorage Center
05:58PM 54.7167 171.5000 235° Southwest 400 460 32,000  Level Anchorage Center
05:59PM 54.6500 171.3167 238° Southwest 400 460 32,000  Level Anchorage Center
06:00PM 54.6000 171.1833 237° Southwest 410 472 32,000  Level Anchorage Center
06:01PM 54.5167 171.0167 229° Southwest 400 460 32,000  Level Anchorage Center
06:02PM 54.4667 170.8833 237° Southwest 410 472 32,000  Level Anchorage Center
06:03PM 54.3833 170.7000 232° Southwest 420 483 32,000  Level Anchorage Center
06:04PM 54.3333 170.5667 237° Southwest 410 472 32,000  Level Anchorage Center
06:05PM 54.2500 170.4000 229° Southwest 410 472 32,000  Level Anchorage Center
06:06PM 54.2000 170.2500 240° Southwest 430 495 32,000  Level Anchorage Center
06:07PM 54.1167 170.0833 230° Southwest 410 472 32,000  Level Anchorage Center
06:08PM 54.0500 169.9167 236° Southwest 420 483 32,000  Level Anchorage Center
06:10PM 53.9000 169.6000 231° Southwest 430 495 32,000  Level Anchorage Center
06:11PM 53.8500 169.4667 238° Southwest 420 483 32,000  Level Anchorage Center
06:12PM 53.7833 169.3000 236° Southwest 390 449 32,000  Level Anchorage Center
06:15PM 53.5833 168.7667 240° Southwest 429 494 32,000  Level Anchorage Center
06:18PM 53.4167 168.2333 240° Southwest 426 490 32,000  Level Anchorage Center
06:25PM 53.0000 167.1000 239° Southwest 422 486 32,000  Level Anchorage Center
06:40PM 52.1167 164.7667 237° Southwest 431 496 32,000  Level Anchorage Center
06:44PM 51.7500 163.8667 236° Southwest 439 505 32,000  Level Anchorage Center
06:45PM 51.6500 163.6500 236° Southwest 440 506 32,000  Level Anchorage Center
06:53PM 51.0833 162.3000 235° Southwest 433 498 32,000  Level Anchorage Center
07:03PM 50.4000 160.7833 234° Southwest 435 501 32,000  Level Anchorage Center
07:06PM 50.2000 160.3833 234° Southwest 431 496 32,000  Level Anchorage Center
07:07PM 50.1562 160.2632 234° Southwest 433 498 32,000  Level FlightAware Transoceanic
07:08PM 50.0835 160.1099 233° Southwest 433 498 32,000  Level FlightAware Transoceanic
07:09PM 50.0105 159.9570 233° Southwest 433 498 32,000  Level FlightAware Transoceanic
07:10PM 49.9235 159.7757 233° Southwest 435 501 32,000  Level FlightAware Transoceanic
07:11PM 49.8547 159.6334 233° Southwest 435 501 32,000  Level FlightAware Transoceanic
07:12PM 49.7863 159.4964 234° Southwest 431 496 32,000  Level FlightAware Transoceanic
07:13PM 49.7167 159.3500 233° Southwest 431 496 32,000  Level FlightAware Transoceanic
07:14PM 49.6489 159.2116 233° Southwest 431 496 32,000  Level FlightAware Transoceanic
07:15PM 49.5809 159.0735 233° Southwest 431 496 32,000  Level FlightAware Transoceanic
07:16PM 49.5128 158.9359 233° Southwest 431 496 32,000  Level FlightAware Transoceanic
07:17PM 49.4445 158.7986 233° Southwest 431 496 32,000  Level FlightAware Transoceanic
07:18PM 49.3761 158.6617 232° Southwest 431 496 32,000  Level FlightAware Transoceanic
07:19PM 49.3075 158.5252 232° Southwest 431 496 32,000  Level FlightAware Transoceanic
07:20PM 49.2388 158.3891 232° Southwest 431 496 32,000  Level FlightAware Transoceanic
07:21PM 49.1698 158.2534 232° Southwest 431 496 32,000  Level FlightAware Transoceanic
07:22PM 49.1008 158.1180 232° Southwest 431 496 32,000  Level FlightAware Transoceanic
07:23PM 49.0315 157.9830 232° Southwest 431 496 32,000  Level FlightAware Transoceanic
07:24PM 48.9621 157.8484 232° Southwest 431 496 32,000  Level FlightAware Transoceanic
07:25PM 48.8926 157.7142 232° Southwest 431 496 32,000  Level FlightAware Transoceanic
07:26PM 48.8229 157.5803 232° Southwest 431 496 32,000  Level FlightAware Transoceanic
07:27PM 48.7530 157.4468 231° Southwest 431 496 32,000  Level FlightAware Transoceanic
07:28PM 48.6830 157.3137 231° Southwest 431 496 32,000  Level FlightAware Transoceanic
07:29PM 48.6129 157.1809 231° Southwest 431 496 32,000  Level FlightAware Transoceanic
07:30PM 48.5425 157.0485 231° Southwest 431 496 32,000  Level FlightAware Transoceanic
07:31PM 48.4721 156.9165 231° Southwest 431 496 32,000  Level FlightAware Transoceanic
07:32PM 48.4014 156.7849 231° Southwest 431 496 32,000  Level FlightAware Transoceanic
07:33PM 48.3307 156.6536 231° Southwest 431 496 32,000  Level FlightAware Transoceanic
07:34PM 48.2598 156.5226 231° Southwest 431 496 32,000  Level FlightAware Transoceanic
07:35PM 48.1887 156.3921 231° Southwest 431 496 32,000  Level FlightAware Transoceanic
07:36PM 48.1175 156.2619 231° Southwest 431 496 32,000  Level FlightAware Transoceanic
07:37PM 48.0461 156.1321 231° Southwest 431 496 32,000  Level FlightAware Transoceanic
07:38PM 47.9746 156.0026 230° Southwest 431 496 32,000  Level FlightAware Transoceanic
07:39PM 47.9030 155.8735 230° Southwest 431 496 32,000  Level FlightAware Transoceanic
07:40PM 47.8312 155.7447 230° Southwest 431 496 32,000  Level FlightAware Transoceanic
07:41PM 47.7592 155.6163 230° Southwest 431 496 32,000  Level FlightAware Transoceanic
07:42PM 47.6871 155.4883 230° Southwest 431 496 32,000  Level FlightAware Transoceanic
07:43PM 47.6149 155.3606 230° Southwest 431 496 32,000  Level FlightAware Transoceanic
07:44PM 47.5426 155.2332 230° Southwest 431 496 32,000  Level FlightAware Transoceanic
07:45PM 47.4701 155.1062 230° Southwest 431 496 32,000  Level FlightAware Transoceanic
07:46PM 47.3974 154.9796 230° Southwest 431 496 32,000  Level FlightAware Transoceanic
07:47PM 47.3246 154.8533 230° Southwest 431 496 32,000  Level FlightAware Transoceanic
07:48PM 47.2517 154.7274 229° Southwest 431 496 32,000  Level FlightAware Transoceanic
07:49PM 47.1786 154.6018 229° Southwest 431 496 32,000  Level FlightAware Transoceanic
07:50PM 47.1054 154.4765 229° Southwest 431 496 32,000  Level FlightAware Transoceanic
07:51PM 47.0321 154.3516 229° Southwest 431 496 32,000  Level FlightAware Transoceanic
07:52PM 46.9586 154.2270 229° Southwest 431 496 32,000  Level FlightAware Transoceanic
07:53PM 46.8850 154.1028 229° Southwest 431 496 32,000  Level FlightAware Transoceanic
07:54PM 46.8113 153.9789 229° Southwest 431 496 32,000  Level FlightAware Transoceanic
07:55PM 46.7374 153.8554 229° Southwest 431 496 32,000  Level FlightAware Transoceanic
07:56PM 46.6634 153.7322 229° Southwest 431 496 32,000  Level FlightAware Transoceanic
07:57PM 46.5893 153.6093 229° Southwest 431 496 32,000  Level FlightAware Transoceanic
07:58PM 46.5150 153.4868 229° Southwest 431 496 32,000  Level FlightAware Transoceanic
07:59PM 46.4406 153.3646 228° Southwest 431 496 32,000  Level FlightAware Transoceanic
08:00PM 46.3661 153.2427 228° Southwest 431 496 32,000  Level FlightAware Transoceanic
08:01PM 46.2915 153.1212 228° Southwest 431 496 32,000  Level FlightAware Transoceanic
08:02PM 46.2179 153.0020 228° Southwest  Level FlightAware Approximate
08:03PM 46.1441 152.8831 228° Southwest  Level FlightAware Approximate
08:04PM 46.1450 152.8856 228° Southwest  Level FlightAware Approximate
08:05PM 46.0707 152.7675 228° Southwest  Level FlightAware Approximate
08:06PM 45.9963 152.6499 228° Southwest  Level FlightAware Approximate
08:07PM 45.9218 152.5325 228° Southwest  Level FlightAware Approximate
08:08PM 45.8472 152.4154 228° Southwest  Level FlightAware Approximate
08:09PM 45.7724 152.2986 227° Southwest  Level FlightAware Approximate
08:10PM 45.6975 152.1822 227° Southwest  Level FlightAware Approximate
08:11PM 45.6226 152.0661 227° Southwest  Level FlightAware Approximate
08:12PM 45.5474 151.9503 227° Southwest  Level FlightAware Approximate
08:13PM 45.4722 151.8347 227° Southwest  Level FlightAware Approximate
08:14PM 45.3969 151.7195 227° Southwest  Level FlightAware Approximate
08:15PM 45.3214 151.6047 227° Southwest  Level FlightAware Approximate
08:16PM 45.2459 151.4901 227° Southwest  Level FlightAware Approximate
08:17PM 45.1702 151.3758 227° Southwest  Level FlightAware Approximate
08:18PM 45.0944 151.2618 227° Southwest  Level FlightAware Approximate
08:19PM 45.0185 151.1481 227° Southwest  Level FlightAware Approximate
08:20PM 44.9425 151.0347 227° Southwest  Level FlightAware Approximate
08:21PM 44.8663 150.9217 226° Southwest  Level FlightAware Approximate
08:22PM 44.7901 150.8089 226° Southwest  Level FlightAware Approximate
08:23PM 44.7137 150.6964 226° Southwest  Level FlightAware Approximate
08:24PM 44.6372 150.5842 226° Southwest  Level FlightAware Approximate
08:25PM 44.5607 150.4723 226° Southwest  Level FlightAware Approximate
08:26PM 44.4840 150.3607 226° Southwest  Level FlightAware Approximate
08:27PM 44.4072 150.2495 226° Southwest  Level FlightAware Approximate
08:28PM 44.3303 150.1384 226° Southwest  Level FlightAware Approximate
08:29PM 44.2533 150.0277 226° Southwest  Level FlightAware Approximate
08:30PM 44.1762 149.9173 226° Southwest  Level FlightAware Approximate
08:31PM 44.0989 149.8071 226° Southwest  Level FlightAware Approximate
08:32PM 44.0216 149.6973 226° Southwest  Level FlightAware Approximate
08:33PM 43.9442 149.5877 226° Southwest  Level FlightAware Approximate
08:34PM 43.8666 149.4785 225° Southwest  Level FlightAware Approximate
08:35PM 43.7890 149.3695 225° Southwest  Level FlightAware Approximate
08:36PM 43.7113 149.2608 225° Southwest  Level FlightAware Approximate
08:37PM 43.6334 149.1523 225° Southwest  Level FlightAware Approximate
08:38PM 43.5555 149.0442 225° Southwest  Level FlightAware Approximate
08:39PM 43.4774 148.9363 225° Southwest  Level FlightAware Approximate
08:40PM 43.3993 148.8287 225° Southwest  Level FlightAware Approximate
08:41PM 43.3210 148.7214 225° Southwest  Level FlightAware Approximate
08:42PM 43.2426 148.6144 225° Southwest  Level FlightAware Approximate
08:43PM 43.1642 148.5076 225° Southwest  Level FlightAware Approximate
08:44PM 43.0857 148.4011 225° Southwest  Level FlightAware Approximate
08:45PM 43.0070 148.2949 225° Southwest  Level FlightAware Approximate
08:46PM 42.9282 148.1890 225° Southwest  Level FlightAware Approximate
08:47PM 42.8494 148.0833 225° Southwest  Level FlightAware Approximate
08:48PM 42.7705 147.9779 224° Southwest  Level FlightAware Approximate
08:49PM 42.6914 147.8728 224° Southwest  Level FlightAware Approximate
08:50PM 42.6123 147.7679 224° Southwest  Level FlightAware Approximate
08:51PM 42.5331 147.6633 224° Southwest  Level FlightAware Approximate
08:52PM 42.4538 147.5590 224° Southwest  Level FlightAware Approximate
08:53PM 42.3744 147.4548 225° Southwest  Level FlightAware Approximate
08:54PM 42.2957 147.3499 225° Southwest  Level FlightAware Approximate
08:55PM 42.2169 147.2452 225° Southwest  Level FlightAware Approximate
08:56PM 42.1380 147.1408 224° Southwest  Level FlightAware Approximate
08:57PM 42.0590 147.0367 224° Southwest  Level FlightAware Approximate
08:58PM 41.9799 146.9328 224° Southwest  Level FlightAware Approximate
08:59PM 41.9006 146.8293 224° Southwest  Level FlightAware Approximate
09:00PM 41.8207 146.7268 224° Southwest  Level FlightAware Approximate
09:01PM 41.7407 146.6246 224° Southwest  Level FlightAware Approximate
09:02PM 41.6607 146.5226 224° Southwest  Level FlightAware Approximate
09:03PM 41.5805 146.4208 224° Southwest  Level FlightAware Approximate
09:04PM 41.5003 146.3194 223° Southwest  Level FlightAware Approximate
09:05PM 41.4199 146.2181 223° Southwest  Level FlightAware Approximate
09:06PM 41.3395 146.1171 223° Southwest  Level FlightAware Approximate
09:07PM 41.2590 146.0164 223° Southwest  Level FlightAware Approximate
09:08PM 41.1784 145.9159 223° Southwest  Level FlightAware Approximate
09:09PM 41.0977 145.8156 223° Southwest  Level FlightAware Approximate
09:10PM 41.0169 145.7156 223° Southwest  Level FlightAware Approximate
09:11PM 40.9361 145.6159 223° Southwest  Level FlightAware Approximate
09:12PM 40.8551 145.5164 223° Southwest  Level FlightAware Approximate
09:13PM 40.7741 145.4171 223° Southwest  Level FlightAware Approximate
09:14PM 40.6930 145.3181 223° Southwest  Level FlightAware Approximate
09:15PM 40.6118 145.2193 223° Southwest  Level FlightAware Approximate
09:16PM 40.5305 145.1207 223° Southwest  Level FlightAware Approximate
09:17PM 40.4491 145.0224 223° Southwest  Level FlightAware Approximate
09:18PM 40.3814 144.9094 238° Southwest  Level FlightAware Approximate
09:19PM 40.3226 144.7866 238° Southwest  Level FlightAware Approximate
09:20PM 40.2636 144.6640 238° Southwest  Level FlightAware Approximate
09:21PM 40.2046 144.5417 238° Southwest  Level FlightAware Approximate
09:22PM 40.1454 144.4196 238° Southwest  Level FlightAware Approximate
09:23PM 40.0861 144.2976 238° Southwest  Level FlightAware Approximate
09:24PM 40.0266 144.1759 237° Southwest  Level FlightAware Approximate
09:25PM 39.9671 144.0544 237° Southwest  Level FlightAware Approximate
09:26PM 39.9074 143.9332 237° Southwest  Level FlightAware Approximate
09:27PM 39.8476 143.8121 237° Southwest  Level FlightAware Approximate
09:28PM 39.7888 143.6902 238° Southwest  Level FlightAware Approximate
09:29PM 39.7304 143.5683 238° Southwest  Level FlightAware Approximate
09:30PM 39.6717 143.4465 238° Southwest  Level FlightAware Approximate
09:31PM 39.6130 143.3249 238° Southwest  Level FlightAware Approximate
09:32PM 39.5542 143.2036 238° Southwest  Level FlightAware Approximate
09:33PM 39.4952 143.0824 238° Southwest  Level FlightAware Approximate
09:34PM 39.4361 142.9615 238° Southwest  Level FlightAware Approximate
09:35PM 39.3768 142.8408 238° Southwest  Level FlightAware Approximate
09:36PM 39.3175 142.7203 238° Southwest  Level FlightAware Approximate
09:37PM 39.2580 142.5999 237° Southwest  Level FlightAware Approximate
09:38PM 39.1947 142.4834 230° Southwest  Level FlightAware Approximate
09:39PM 39.1229 142.3750 230° Southwest  Level FlightAware Approximate
09:40PM 39.0511 142.2668 229° Southwest  Level FlightAware Approximate
09:41PM 38.9791 142.1589 229° Southwest  Level FlightAware Approximate
09:42PM 38.9071 142.0511 229° Southwest  Level FlightAware Approximate
09:43PM 38.8349 141.9436 229° Southwest  Level FlightAware Approximate
09:44PM 38.7627 141.8363 229° Southwest  Level FlightAware Approximate
09:45PM 38.6903 141.7293 229° Southwest  Level FlightAware Approximate
09:46PM 38.6179 141.6224 229° Southwest  Level FlightAware Approximate
09:47PM 38.5454 141.5158 229° Southwest  Level FlightAware Approximate
09:48PM 38.4727 141.4093 229° Southwest  Level FlightAware Approximate
09:49PM 38.4000 141.3031 229° Southwest  Level FlightAware Approximate
09:50PM 38.3272 141.1971 229° Southwest  Level FlightAware Approximate
09:51PM 38.2543 141.0913 229° Southwest  Level FlightAware Approximate
09:52PM 38.1813 140.9858 229° Southwest  Level FlightAware Approximate
09:53PM 38.1283 140.8687 262° West  Level FlightAware Approximate
09:54PM 38.1137 140.7295 262° West  Level FlightAware Approximate
09:55PM 38.0989 140.5903 262° West  Level FlightAware Approximate
09:56PM 38.0835 140.4513 262° West  Level FlightAware Approximate
09:57PM 38.0696 140.3121 263° West  Level FlightAware Approximate
09:58PM 38.0565 140.1727 263° West  Level FlightAware Approximate
09:59PM 38.0435 140.0333 263° West  Level FlightAware Approximate
10:00PM 38.0304 139.8940 263° West  Level FlightAware Approximate
10:01PM 38.0171 139.7548 263° West  Level FlightAware Approximate
10:02PM 38.0032 139.6156 263° West  Level FlightAware Approximate
10:03PM 37.9891 139.4766 263° West  Level FlightAware Approximate
10:04PM 37.9748 139.3376 263° West  Level FlightAware Approximate
10:05PM 37.9604 139.1986 263° West  Level FlightAware Approximate
10:06PM 37.9311 139.0671 234° Southwest  Level FlightAware Approximate
10:07PM 37.8661 138.9539 234° Southwest  Level FlightAware Approximate
10:08PM 37.8009 138.8409 234° Southwest  Level FlightAware Approximate
10:09PM 37.7356 138.7282 234° Southwest  Level FlightAware Approximate
10:10PM 37.6702 138.6156 234° Southwest  Level FlightAware Approximate
10:11PM 37.6047 138.5032 234° Southwest  Level FlightAware Approximate
10:12PM 37.5402 138.3900 235° Southwest  Level FlightAware Approximate
10:13PM 37.4761 138.2765 235° Southwest  Level FlightAware Approximate
10:14PM 37.4119 138.1632 235° Southwest  Level FlightAware Approximate
10:15PM 37.3476 138.0501 234° Southwest  Level FlightAware Approximate
10:16PM 37.2826 137.9377 233° Southwest  Level FlightAware Approximate
10:17PM 37.2172 137.8259 234° Southwest  Level FlightAware Approximate
10:18PM 37.1515 137.7144 233° Southwest  Level FlightAware Approximate
10:19PM 37.0843 137.6043 233° Southwest  Level FlightAware Approximate
10:20PM 37.0171 137.4945 233° Southwest  Level FlightAware Approximate
10:21PM 36.9549 137.3802 237° Southwest  Level FlightAware Approximate
10:22PM 36.8944 137.2646 237° Southwest  Level FlightAware Approximate
10:23PM 36.8337 137.1491 237° Southwest  Level FlightAware Approximate
10:24PM 36.7682 137.0381 232° Southwest  Level FlightAware Approximate
10:25PM 36.7007 136.9289 232° Southwest  Level FlightAware Approximate
10:26PM 36.6331 136.8199 232° Southwest  Level FlightAware Approximate
10:27PM 36.5667 136.7100 234° Southwest  Level FlightAware Approximate
10:28PM 36.5013 136.5991 234° Southwest  Level FlightAware Approximate
10:29PM 36.4358 136.4884 234° Southwest  Level FlightAware Approximate
10:30PM 36.3636 136.3876 207° Southwest  Level FlightAware Approximate
10:31PM 36.2649 136.3260 207° Southwest  Level FlightAware Approximate
10:32PM 36.1692 136.2578 207° Southwest  Level FlightAware Approximate
10:33PM 36.0705 136.1961 207° Southwest  Level FlightAware Approximate
10:34PM 35.9691 136.1422 204° Southwest  Level FlightAware Approximate
10:35PM 35.8680 136.0870 204° Southwest  Level FlightAware Approximate
10:36PM 35.7677 136.0298 207° Southwest  Level FlightAware Approximate
10:37PM 35.6692 135.9682 207° Southwest  Level FlightAware Approximate
10:38PM 35.5726 135.9030 202° Southwest  Level FlightAware Approximate
10:39PM 35.4716 135.8480 205° Southwest  Level FlightAware Approximate
10:40PM 35.3716 135.7901 206° Southwest  Level FlightAware Approximate
10:41PM 35.2720 135.7314 206° Southwest  Level FlightAware Approximate
10:42PM 35.1724 135.6729 206° Southwest  Level FlightAware Approximate
10:43PM 35.0722 135.6160 204° Southwest  Level FlightAware Approximate
10:44PM 34.9720 135.5591 209° Southwest  Level FlightAware Approximate
10:45PM 34.8749 135.4949 206° Southwest  Level FlightAware Approximate
10:46PM 34.7739 135.4413 195° South  Level FlightAware Approximate
10:47PM 34.6749 135.3832 209° Southwest  Level FlightAware Approximate
10:48PM 34.5762 135.3230 209° Southwest  Level FlightAware Approximate
10:49PM 34.4754 135.2685 206° Southwest  Level FlightAware Approximate
10:50PM 34.4273 135.2441 206° Southwest  Level Estimated
10:51PM 34.4273 135.2441 206° Southwest  Level Estimated
10:52PM 34.4273 135.2441 206° Southwest  Level Estimated
10:53PM 34.4273 135.2441 206° Southwest  Level Estimated
10:54PM 34.4273 135.2441 206° Southwest  Level Estimated
10:55PM 34.4273 135.2441 206° Southwest  Level Estimated
10:56PM 34.4273 135.2441 206° Southwest  Level Estimated
10:57PM 34.4273 135.2441 206° Southwest  Level Estimated
10:58PM 34.4273 135.2441 206° Southwest  Level Estimated
10:59PM 34.4273 135.2441 206° Southwest  Level Estimated
11:00PM 34.4273 135.2441 206° Southwest  Level Estimated
11:01PM 34.4273 135.2441 206° Southwest  Level Estimated
11:02PM 34.4273 135.2441 206° Southwest  Level Estimated
11:03PM 34.4273 135.2441 206° Southwest  Level Estimated
11:04PM 34.4273 135.2441 206° Southwest  Level Estimated
11:05PM 34.4273 135.2441 206° Southwest  Level Estimated
11:06PM 34.4273 135.2441 206° Southwest  Level Estimated
11:07PM 34.4273 135.2441 206° Southwest  Level Estimated
11:08PM 34.4273 135.2441 206° Southwest  Level Estimated
11:09PM 34.4273 135.2441 206° Southwest  Level Estimated
11:10PM 34.4273 135.2441 206° Southwest  Level Estimated
11:11PM 34.4273 135.2441 206° Southwest  Level Estimated
11:12PM 34.4273 135.2441 206° Southwest  Level Estimated
11:13PM 34.4273 135.2441 206° Southwest  Level Estimated
11:14PM 34.4273 135.2441 206° Southwest  Level Estimated
11:15PM 34.4273 135.2441 206° Southwest  Level Estimated
11:16PM 34.4273 135.2441 206° Southwest  Level Estimated
11:17PM 34.4273 135.2441 206° Southwest  Level Estimated